To NAV CANADA Home Page Login to a new session Search on AWWS site Feedback and Comments Disclaimer Vers la page française équivalente Tips FAQ What's new on the site To the Forecasts and Observations / NOTAM section To "File a Flight Plan" website Publications and other links Update of the User's profile FIC Telephone Numbers My Weather Data Folder Route Weather Data Regional Weather Data Local Weather Data To the Forecasts and Observations / NOTAM section
Request Generated 02/28/2015 at 00:29:11 UTC . Weather information available at that time is displayed.

METAR/TAF

MONT-JOLI/QC    

METAR CYYY 280000Z 25006KT 30SM FEW030 M13/M19 A3023 RMK SC1 SLP243=
METAR CYYY 272300Z 26010G16KT 30SM DRSN FEW030 M12/M19 A3020 RMK SC1
SLP233=
METAR CYYY 272200Z 25015G21KT 30SM DRSN FEW030 M12/M20 A3018 RMK SC2
SLP225=

TAF CYYY 271938Z 2720/2808 25018G28KT P6SM SCT030 TEMPO 2720/2724 5SM
-SHSN BKN030
BECMG 2722/2724 26012KT
FM280000 26012KT P6SM SKC
RMK NXT FCST BY 280200Z=
Your time UTC time
Weather data provided by Environment Canada and NAV CANADA